createdAt,value
2018-10-15T00:00:56.754Z,14.40
2018-10-15T00:01:56.658Z,14.40
2018-10-15T00:02:56.584Z,14.37
2018-10-15T00:03:56.502Z,14.36
2018-10-15T00:04:56.417Z,14.37
2018-10-15T00:05:56.333Z,14.39
2018-10-15T00:06:56.260Z,14.36
2018-10-15T00:07:56.173Z,14.36
2018-10-15T00:08:56.098Z,14.28
2018-10-15T00:09:56.006Z,14.29
2018-10-15T00:10:55.931Z,14.27
2018-10-15T00:11:55.846Z,14.22
2018-10-15T00:12:55.771Z,14.27
2018-10-15T00:13:55.679Z,14.24
2018-10-15T00:14:55.604Z,14.25
2018-10-15T00:15:55.772Z,14.35
2018-10-15T00:16:55.445Z,14.37
2018-10-15T00:17:55.360Z,14.40
2018-10-15T00:18:55.299Z,14.40
2018-10-15T00:19:55.193Z,14.43
2018-10-15T00:20:55.119Z,14.46
2018-10-15T00:21:55.048Z,14.45
2018-10-15T00:22:54.959Z,14.35
2018-10-15T00:23:54.874Z,14.32
2018-10-15T00:24:54.789Z,14.37
2018-10-15T00:25:54.708Z,14.35
2018-10-15T00:26:54.621Z,14.28
2018-10-15T00:27:54.551Z,14.40
2018-10-15T00:28:54.461Z,14.36
2018-10-15T00:29:54.382Z,14.27
2018-10-15T00:30:54.301Z,14.39
2018-10-15T00:31:54.223Z,14.33
2018-10-15T00:32:54.135Z,14.35
2018-10-15T00:33:54.062Z,14.32
2018-10-15T00:34:53.976Z,14.28
2018-10-15T00:35:53.898Z,14.32
2018-10-15T00:36:53.810Z,14.29
2018-10-15T00:37:53.738Z,14.28
2018-10-15T00:38:53.652Z,14.27
2018-10-15T00:39:53.576Z,14.29
2018-10-15T00:40:53.487Z,14.33
2018-10-15T00:41:53.408Z,14.28
2018-10-15T00:42:53.321Z,14.27
2018-10-15T00:43:53.253Z,14.28
2018-10-15T00:44:53.181Z,14.27
2018-10-15T00:45:53.085Z,14.20
2018-10-15T00:46:52.999Z,14.29
2018-10-15T00:47:52.921Z,14.24
2018-10-15T00:48:52.833Z,14.22
2018-10-15T00:49:52.751Z,14.21
2018-10-15T00:50:52.676Z,14.09
2018-10-15T00:51:52.584Z,14.10
2018-10-15T00:52:52.511Z,14.07
2018-10-15T00:53:52.428Z,13.97
2018-10-15T00:54:52.351Z,13.97
2018-10-15T00:55:52.266Z,13.92
2018-10-15T00:56:52.190Z,13.89
2018-10-15T00:57:52.101Z,13.95
2018-10-15T00:58:52.028Z,13.91
2018-10-15T00:59:51.942Z,13.88
2018-10-15T01:00:52.115Z,13.92
2018-10-15T01:01:51.773Z,13.88
2018-10-15T01:02:51.698Z,13.89
2018-10-15T01:03:51.652Z,13.82
2018-10-15T01:04:51.537Z,13.70
2018-10-15T01:05:51.455Z,13.70
2018-10-15T01:06:51.381Z,13.75
2018-10-15T01:07:51.288Z,13.67
2018-10-15T01:08:51.213Z,13.73
2018-10-15T01:09:51.131Z,13.67
2018-10-15T01:10:51.043Z,13.66
2018-10-15T01:11:50.967Z,13.70
2018-10-15T01:12:50.883Z,13.82
2018-10-15T01:13:50.799Z,13.71
2018-10-15T01:14:50.726Z,13.73
2018-10-15T01:15:50.643Z,13.84
2018-10-15T01:16:50.563Z,13.84
2018-10-15T01:17:50.477Z,13.84
2018-10-15T01:18:50.389Z,13.78
2018-10-15T01:19:50.326Z,13.87
2018-10-15T01:20:50.226Z,13.85
2018-10-15T01:21:50.155Z,13.70
2018-10-15T01:22:50.068Z,13.77
2018-10-15T01:23:49.992Z,13.78
2018-10-15T01:24:49.906Z,13.70
2018-10-15T01:25:49.827Z,13.67
2018-10-15T01:26:49.738Z,13.66
2018-10-15T01:27:49.663Z,13.69
2018-10-15T01:28:49.590Z,13.54
2018-10-15T01:29:49.494Z,13.48
2018-10-15T01:30:49.433Z,13.41
2018-10-15T01:31:49.329Z,13.44
2018-10-15T01:32:49.252Z,13.48
2018-10-15T01:33:49.168Z,13.48
2018-10-15T01:34:49.094Z,13.45
2018-10-15T01:35:49.008Z,13.45
2018-10-15T01:36:48.939Z,13.45
2018-10-15T01:37:48.841Z,13.45
2018-10-15T01:38:48.755Z,13.39
2018-10-15T01:39:48.685Z,13.33
2018-10-15T01:40:48.897Z,13.33
2018-10-15T01:41:48.517Z,13.39
2018-10-15T01:42:48.429Z,13.39
2018-10-15T01:43:48.354Z,13.44
2018-10-15T01:44:48.265Z,13.39
2018-10-15T01:45:48.204Z,13.38
2018-10-15T01:46:48.107Z,13.42
2018-10-15T01:47:48.031Z,13.36
2018-10-15T01:48:47.942Z,13.44
2018-10-15T01:49:47.873Z,13.32
2018-10-15T01:50:47.787Z,13.28
2018-10-15T01:51:47.696Z,13.29
2018-10-15T01:52:47.622Z,13.20
2018-10-15T01:53:47.529Z,13.25
2018-10-15T01:54:47.454Z,13.32
2018-10-15T01:55:47.370Z,13.26
2018-10-15T01:56:47.296Z,13.23
2018-10-15T01:57:47.204Z,13.23
2018-10-15T01:58:47.131Z,13.17
2018-10-15T01:59:47.044Z,13.33
2018-10-15T02:00:46.982Z,13.22
2018-10-15T02:01:46.886Z,13.20
2018-10-15T02:02:46.799Z,13.30
2018-10-15T02:03:46.717Z,13.26
2018-10-15T02:04:46.642Z,13.29
2018-10-15T02:05:46.560Z,13.28
2018-10-15T02:06:46.485Z,13.33
2018-10-15T02:07:46.399Z,13.28
2018-10-15T02:08:46.312Z,13.25
2018-10-15T02:09:46.234Z,13.25
2018-10-15T02:10:46.145Z,13.32
2018-10-15T02:11:46.076Z,13.28
2018-10-15T02:12:45.990Z,13.33
2018-10-15T02:13:45.897Z,13.22
2018-10-15T02:14:45.824Z,13.29
2018-10-15T02:15:46.045Z,13.29
2018-10-15T02:16:45.657Z,13.29
2018-10-15T02:17:45.585Z,13.29
2018-10-15T02:18:45.498Z,13.30
2018-10-15T02:19:45.409Z,13.36
2018-10-15T02:20:45.335Z,13.32
2018-10-15T02:21:45.250Z,13.29
2018-10-15T02:22:45.189Z,13.29
2018-10-15T02:23:45.088Z,13.20
2018-10-15T02:24:45.004Z,13.12
2018-10-15T02:25:44.921Z,13.10
2018-10-15T02:26:44.844Z,13.11
2018-10-15T02:27:44.764Z,13.07
2018-10-15T02:28:44.689Z,13.05
2018-10-15T02:29:44.597Z,13.11
2018-10-15T02:30:44.522Z,13.12
2018-10-15T02:31:44.434Z,13.07
2018-10-15T02:32:44.346Z,12.97
2018-10-15T02:33:44.275Z,12.90
2018-10-15T02:34:44.188Z,12.78
2018-10-15T02:35:44.099Z,12.71
2018-10-15T02:36:44.023Z,12.64
2018-10-15T02:37:43.942Z,12.57
2018-10-15T02:38:43.865Z,12.67
2018-10-15T02:39:43.775Z,12.67
2018-10-15T02:40:44.001Z,12.59
2018-10-15T02:41:43.610Z,12.57
2018-10-15T02:42:43.535Z,12.47
2018-10-15T02:43:43.451Z,12.57
2018-10-15T02:44:43.376Z,12.59
2018-10-15T02:45:43.286Z,12.60
2018-10-15T02:46:43.197Z,12.59
2018-10-15T02:47:43.124Z,12.64
2018-10-15T02:48:43.051Z,12.56
2018-10-15T02:49:42.967Z,12.57
2018-10-15T02:50:42.879Z,12.57
2018-10-15T02:51:42.798Z,12.60
2018-10-15T02:52:42.710Z,12.68
2018-10-15T02:53:42.641Z,12.57
2018-10-15T02:54:42.552Z,12.64
2018-10-15T02:55:42.479Z,12.74
2018-10-15T02:56:42.394Z,12.75
2018-10-15T02:57:42.307Z,12.75
2018-10-15T02:58:42.227Z,12.74
2018-10-15T02:59:42.143Z,12.85
2018-10-15T03:00:42.068Z,12.77
2018-10-15T03:01:41.976Z,12.82
2018-10-15T03:02:41.900Z,12.77
2018-10-15T03:03:41.812Z,12.79
2018-10-15T03:04:41.725Z,12.75
2018-10-15T03:05:41.967Z,12.70
2018-10-15T03:06:41.567Z,12.79
2018-10-15T03:07:41.492Z,12.65
2018-10-15T03:08:41.401Z,12.65
2018-10-15T03:09:41.345Z,12.67
2018-10-15T03:10:41.245Z,12.67
2018-10-15T03:11:41.167Z,12.60
2018-10-15T03:12:41.079Z,12.59
2018-10-15T03:13:40.992Z,12.52
2018-10-15T03:14:40.913Z,12.57
2018-10-15T03:15:40.829Z,12.59
2018-10-15T03:16:40.769Z,12.59
2018-10-15T03:17:40.663Z,12.68
2018-10-15T03:18:40.595Z,12.68
2018-10-15T03:19:40.503Z,12.68
2018-10-15T03:20:40.427Z,12.68
2018-10-15T03:21:40.346Z,12.65
2018-10-15T03:22:40.270Z,12.65
2018-10-15T03:23:40.176Z,12.60
2018-10-15T03:24:40.097Z,12.70
2018-10-15T03:25:40.018Z,12.68
2018-10-15T03:26:39.931Z,12.67
2018-10-15T03:27:39.874Z,12.65
2018-10-15T03:28:39.773Z,12.59
2018-10-15T03:29:39.683Z,12.57
2018-10-15T03:30:39.604Z,12.65
2018-10-15T03:31:39.518Z,12.65
2018-10-15T03:32:39.442Z,12.78
2018-10-15T03:33:39.358Z,12.72
2018-10-15T03:34:39.283Z,12.65
2018-10-15T03:35:39.194Z,12.78
2018-10-15T03:36:39.119Z,12.93
2018-10-15T03:37:39.027Z,12.90
2018-10-15T03:38:38.943Z,12.85
2018-10-15T03:39:38.872Z,12.83
2018-10-15T03:40:38.783Z,12.86
2018-10-15T03:41:38.706Z,12.82
2018-10-15T03:42:38.618Z,12.86
2018-10-15T03:43:38.542Z,12.85
2018-10-15T03:44:38.466Z,12.86
2018-10-15T03:45:38.371Z,12.83
2018-10-15T03:46:38.299Z,12.74
2018-10-15T03:47:38.203Z,12.78
2018-10-15T03:48:38.128Z,12.74
2018-10-15T03:49:38.057Z,12.90
2018-10-15T03:50:37.971Z,12.92
2018-10-15T03:51:37.885Z,12.89
2018-10-15T03:52:37.811Z,12.97
2018-10-15T03:53:37.718Z,13.07
2018-10-15T03:54:37.633Z,13.07
2018-10-15T03:55:37.559Z,13.03
2018-10-15T03:56:37.472Z,13.04
2018-10-15T03:57:37.394Z,12.82
2018-10-15T03:58:37.305Z,12.82
2018-10-15T03:59:37.234Z,12.72
2018-10-15T04:00:37.147Z,12.62
2018-10-15T04:01:37.063Z,12.64
2018-10-15T04:02:37.091Z,12.67
2018-10-15T04:03:36.896Z,12.60
2018-10-15T04:04:36.821Z,12.68
2018-10-15T04:05:37.037Z,12.67
2018-10-15T04:06:36.662Z,12.67
2018-10-15T04:07:36.575Z,12.71
2018-10-15T04:08:36.579Z,12.77
2018-10-15T04:09:36.409Z,12.82
2018-10-15T04:10:36.321Z,12.85
2018-10-15T04:11:36.251Z,12.86
2018-10-15T04:12:36.163Z,12.90
2018-10-15T04:13:36.151Z,12.82
2018-10-15T04:14:36.065Z,12.82
2018-10-15T04:15:35.920Z,12.90
2018-10-15T04:16:35.832Z,12.82
2018-10-15T04:17:35.761Z,12.83
2018-10-15T04:18:35.675Z,12.75
2018-10-15T04:19:35.595Z,12.70
2018-10-15T04:20:35.757Z,12.78
2018-10-15T04:21:35.426Z,12.68
2018-10-15T04:22:35.352Z,12.60
2018-10-15T04:23:35.276Z,12.59
2018-10-15T04:24:35.202Z,12.57
2018-10-15T04:25:35.098Z,12.59
2018-10-15T04:26:35.010Z,12.54
2018-10-15T04:27:34.941Z,12.54
2018-10-15T04:28:34.851Z,12.46
2018-10-15T04:29:34.771Z,12.45
2018-10-15T04:30:34.688Z,12.42
2018-10-15T04:31:34.611Z,12.28
2018-10-15T04:32:34.524Z,12.35
2018-10-15T04:33:34.453Z,12.21
2018-10-15T04:34:34.365Z,12.23
2018-10-15T04:35:34.276Z,12.17
2018-10-15T04:36:34.197Z,12.10
2018-10-15T04:37:34.114Z,12.02
2018-10-15T04:38:34.040Z,11.88
2018-10-15T04:39:33.955Z,11.94
2018-10-15T04:40:33.885Z,11.95
2018-10-15T04:41:33.787Z,11.88
2018-10-15T04:42:33.700Z,11.90
2018-10-15T04:43:33.629Z,11.88
2018-10-15T04:44:33.543Z,11.88
2018-10-15T04:45:33.468Z,11.94
2018-10-15T04:46:33.373Z,11.88
2018-10-15T04:47:33.301Z,11.94
2018-10-15T04:48:33.212Z,11.96
2018-10-15T04:49:33.315Z,11.88
2018-10-15T04:50:33.055Z,11.91
2018-10-15T04:51:32.962Z,11.88
2018-10-15T04:52:32.888Z,11.96
2018-10-15T04:53:32.806Z,12.01
2018-10-15T04:54:32.730Z,11.99
2018-10-15T04:55:32.640Z,12.01
2018-10-15T04:56:32.579Z,11.98
2018-10-15T04:57:32.478Z,12.04
2018-10-15T04:58:32.386Z,12.01
2018-10-15T04:59:32.321Z,12.05
2018-10-15T05:00:32.273Z,11.88
2018-10-15T05:01:32.152Z,11.91
2018-10-15T05:02:32.064Z,11.94
2018-10-15T05:03:31.976Z,11.94
2018-10-15T05:04:31.900Z,11.91
2018-10-15T05:05:31.816Z,11.88
2018-10-15T05:06:31.747Z,11.88
2018-10-15T05:07:31.658Z,11.95
2018-10-15T05:08:31.575Z,11.83
2018-10-15T05:09:31.520Z,11.79
2018-10-15T05:10:31.406Z,11.80
2018-10-15T05:11:31.334Z,11.80
2018-10-15T05:12:31.244Z,11.83
2018-10-15T05:13:31.165Z,11.78
2018-10-15T05:14:31.079Z,11.82
2018-10-15T05:15:31.011Z,11.83
2018-10-15T05:16:30.931Z,11.78
2018-10-15T05:17:30.828Z,11.69
2018-10-15T05:18:30.752Z,11.75
2018-10-15T05:19:30.666Z,11.70
2018-10-15T05:20:30.842Z,11.67
2018-10-15T05:21:30.626Z,11.78
2018-10-15T05:22:30.421Z,11.67
2018-10-15T05:23:30.341Z,11.76
2018-10-15T05:24:30.256Z,11.67
2018-10-15T05:25:30.183Z,11.57
2018-10-15T05:26:30.096Z,11.62
2018-10-15T05:27:30.020Z,11.69
2018-10-15T05:28:29.932Z,11.69
2018-10-15T05:29:29.841Z,11.70
2018-10-15T05:30:29.893Z,11.73
2018-10-15T05:31:29.684Z,11.70
2018-10-15T05:32:29.609Z,11.70
2018-10-15T05:33:29.517Z,11.69
2018-10-15T05:34:29.456Z,11.88
2018-10-15T05:35:29.354Z,11.88
2018-10-15T05:36:29.276Z,11.95
2018-10-15T05:37:29.195Z,11.90
2018-10-15T05:38:29.120Z,11.90
2018-10-15T05:39:29.038Z,11.76
2018-10-15T05:40:29.197Z,11.67
2018-10-15T05:41:28.868Z,11.75
2018-10-15T05:42:28.782Z,11.62
2018-10-15T05:43:28.691Z,11.60
2018-10-15T05:44:28.617Z,11.70
2018-10-15T05:45:28.534Z,11.73
2018-10-15T05:46:28.532Z,11.85
2018-10-15T05:47:28.369Z,11.72
2018-10-15T05:48:28.294Z,11.73
2018-10-15T05:49:28.212Z,11.75
2018-10-15T05:50:28.124Z,11.67
2018-10-15T05:51:28.047Z,11.67
2018-10-15T05:52:27.960Z,11.70
2018-10-15T05:53:27.880Z,11.85
2018-10-15T05:54:27.794Z,11.99
2018-10-15T05:55:27.711Z,11.98
2018-10-15T05:56:27.646Z,12.01
2018-10-15T05:57:27.543Z,11.96
2018-10-15T05:58:27.468Z,11.99
2018-10-15T05:59:27.383Z,12.04
2018-10-15T06:00:27.313Z,12.04
2018-10-15T06:01:27.224Z,12.01
2018-10-15T06:02:27.139Z,11.98
2018-10-15T06:03:27.056Z,12.01
2018-10-15T06:04:26.968Z,11.99
2018-10-15T06:05:26.900Z,11.98
2018-10-15T06:06:26.811Z,11.99
2018-10-15T06:07:26.727Z,11.99
2018-10-15T06:08:26.650Z,12.10
2018-10-15T06:09:26.563Z,11.94
2018-10-15T06:10:26.485Z,11.94
2018-10-15T06:11:26.401Z,11.91
2018-10-15T06:12:26.346Z,11.90
2018-10-15T06:13:26.325Z,11.95
2018-10-15T06:14:26.147Z,11.94
2018-10-15T06:15:26.070Z,11.91
2018-10-15T06:16:25.997Z,12.07
2018-10-15T06:17:25.913Z,12.09
2018-10-15T06:18:25.824Z,12.16
2018-10-15T06:19:25.751Z,12.29
2018-10-15T06:20:25.913Z,12.19
2018-10-15T06:21:25.576Z,12.17
2018-10-15T06:22:25.509Z,12.19
2018-10-15T06:23:25.413Z,12.23
2018-10-15T06:24:25.337Z,12.20
2018-10-15T06:25:25.246Z,12.31
2018-10-15T06:26:25.160Z,12.21
2018-10-15T06:27:25.088Z,12.37
2018-10-15T06:28:25.011Z,12.37
2018-10-15T06:29:24.921Z,12.34
2018-10-15T06:30:24.965Z,12.35
2018-10-15T06:31:24.763Z,12.41
2018-10-15T06:32:24.673Z,12.38
2018-10-15T06:33:24.592Z,12.34
2018-10-15T06:34:24.517Z,12.31
2018-10-15T06:35:24.422Z,12.34
2018-10-15T06:36:24.350Z,12.42
2018-10-15T06:37:24.351Z,12.45
2018-10-15T06:38:24.262Z,12.56
2018-10-15T06:39:24.103Z,12.57
2018-10-15T06:40:24.268Z,12.60
2018-10-15T06:41:23.939Z,12.65
2018-10-15T06:42:23.850Z,12.75
2018-10-15T06:43:23.821Z,12.72
2018-10-15T06:44:23.715Z,12.82
2018-10-15T06:45:23.790Z,12.89
2018-10-15T06:46:23.554Z,12.92
2018-10-15T06:47:23.550Z,12.97
2018-10-15T06:48:23.364Z,13.10
2018-10-15T06:49:23.336Z,13.15
2018-10-15T06:50:23.218Z,13.14
2018-10-15T06:51:23.169Z,13.26
2018-10-15T06:52:23.041Z,13.29
2018-10-15T06:53:23.065Z,13.32
2018-10-15T06:54:22.866Z,13.44
2018-10-15T06:55:22.853Z,13.45
2018-10-15T06:56:22.707Z,13.52
2018-10-15T06:57:22.677Z,13.45
2018-10-15T06:58:22.540Z,13.52
2018-10-15T06:59:22.511Z,13.54
2018-10-15T07:00:22.452Z,13.52
2018-10-15T07:01:22.381Z,13.48
2018-10-15T07:02:22.306Z,13.54
2018-10-15T07:03:22.195Z,13.64
2018-10-15T07:04:22.087Z,13.71
2018-10-15T07:05:21.967Z,13.75
2018-10-15T07:06:21.938Z,13.75
2018-10-15T07:07:21.892Z,13.71
2018-10-15T07:08:21.728Z,13.81
2018-10-15T07:09:21.646Z,13.84
2018-10-15T07:10:21.639Z,13.91
2018-10-15T07:11:21.479Z,13.89
2018-10-15T07:12:21.443Z,13.97
2018-10-15T07:13:21.404Z,13.96
2018-10-15T07:14:21.282Z,14.09
2018-10-15T07:15:21.155Z,14.10
2018-10-15T07:16:21.147Z,14.17
2018-10-15T07:17:20.996Z,14.28
2018-10-15T07:18:20.963Z,14.25
2018-10-15T07:19:20.874Z,14.27
2018-10-15T07:20:20.825Z,14.32
2018-10-15T07:21:20.671Z,14.33
2018-10-15T07:22:20.651Z,14.37
2018-10-15T07:23:20.502Z,14.46
2018-10-15T07:24:20.477Z,14.61
2018-10-15T07:25:20.336Z,14.64
2018-10-15T07:26:20.280Z,14.65
2018-10-15T07:27:20.172Z,14.80
2018-10-15T07:28:20.119Z,14.77
2018-10-15T07:29:20.006Z,14.78
2018-10-15T07:30:20.242Z,14.84
2018-10-15T07:31:19.848Z,14.99
2018-10-15T07:32:19.842Z,15.13
2018-10-15T07:33:19.683Z,15.10
2018-10-15T07:34:19.624Z,15.23
2018-10-15T07:35:19.517Z,15.29
2018-10-15T07:36:19.479Z,15.20
2018-10-15T07:37:19.358Z,15.32
2018-10-15T07:38:19.291Z,15.36
2018-10-15T07:39:19.195Z,15.41
2018-10-15T07:40:19.212Z,15.41
2018-10-15T07:41:19.036Z,15.43
2018-10-15T07:42:19.018Z,15.54
2018-10-15T07:43:18.873Z,15.68
2018-10-15T07:44:18.822Z,15.69
2018-10-15T07:45:18.705Z,15.74
2018-10-15T07:46:18.710Z,15.71
2018-10-15T07:47:18.543Z,15.83
2018-10-15T07:48:18.531Z,15.89
2018-10-15T07:49:18.385Z,15.96
2018-10-15T07:50:18.500Z,16.07
2018-10-15T07:51:18.225Z,16.11
2018-10-15T07:52:18.171Z,16.15
2018-10-15T07:53:18.119Z,16.08
2018-10-15T07:54:18.083Z,16.24
2018-10-15T07:55:17.898Z,16.23
2018-10-15T07:56:17.900Z,16.28
2018-10-15T07:57:17.747Z,16.31
2018-10-15T07:58:17.736Z,16.31
2018-10-15T07:59:17.584Z,16.39
2018-10-15T08:00:17.542Z,16.38
2018-10-15T08:01:17.413Z,16.41
2018-10-15T08:02:17.390Z,16.39
2018-10-15T08:03:17.247Z,16.49
2018-10-15T08:04:17.224Z,16.46
2018-10-15T08:05:17.157Z,16.50
2018-10-15T08:06:17.013Z,16.57
2018-10-15T08:07:16.925Z,16.68
2018-10-15T08:08:16.878Z,16.71
2018-10-15T08:09:16.757Z,16.78
2018-10-15T08:10:16.762Z,16.81
2018-10-15T08:11:16.650Z,16.93
2018-10-15T08:12:16.527Z,16.97
2018-10-15T08:13:16.438Z,17.01
2018-10-15T08:14:16.421Z,16.98
2018-10-15T08:15:16.333Z,17.14
2018-10-15T08:16:16.225Z,17.07
2018-10-15T08:17:16.115Z,17.11
2018-10-15T08:18:16.040Z,16.98
2018-10-15T08:19:15.972Z,17.14
2018-10-15T08:20:15.941Z,17.18
2018-10-15T08:21:15.821Z,17.31
2018-10-15T08:22:15.737Z,17.41
2018-10-15T08:23:15.640Z,17.46
2018-10-15T08:24:15.553Z,17.43
2018-10-15T08:25:15.474Z,17.54
2018-10-15T08:26:15.424Z,17.58
2018-10-15T08:27:15.365Z,17.70
2018-10-15T08:28:15.245Z,17.78
2018-10-15T08:29:15.148Z,17.84
2018-10-15T08:30:15.074Z,17.93
2018-10-15T08:31:14.987Z,18.18
2018-10-15T08:32:14.912Z,18.33
2018-10-15T08:33:14.829Z,18.48
2018-10-15T08:34:14.760Z,18.50
2018-10-15T08:35:14.685Z,18.95
2018-10-15T08:36:14.587Z,19.56
2018-10-15T08:37:14.531Z,20.06
2018-10-15T08:38:14.430Z,20.52
2018-10-15T08:39:14.352Z,20.54
2018-10-15T08:40:14.266Z,20.54
2018-10-15T08:41:14.246Z,20.36
2018-10-15T08:42:14.201Z,19.77
2018-10-15T08:43:14.031Z,19.74
2018-10-15T08:44:13.959Z,19.78
2018-10-15T08:45:13.879Z,19.98
2018-10-15T08:46:13.789Z,20.05
2018-10-15T08:47:13.711Z,20.28
2018-10-15T08:48:13.721Z,20.41
2018-10-15T08:49:13.555Z,20.67
2018-10-15T08:50:13.494Z,20.39
2018-10-15T08:51:13.403Z,20.47
2018-10-15T08:52:13.315Z,20.16
2018-10-15T08:53:13.243Z,20.42
2018-10-15T08:54:13.199Z,20.10
2018-10-15T08:55:13.092Z,20.42
2018-10-15T08:56:13.016Z,20.95
2018-10-15T08:57:12.926Z,21.37
2018-10-15T08:58:12.886Z,21.40
2018-10-15T08:59:12.783Z,21.56
2018-10-15T09:00:12.695Z,20.85
2018-10-15T09:01:12.647Z,21.24
2018-10-15T09:02:12.553Z,20.92
2018-10-15T09:03:12.463Z,21.29
2018-10-15T09:04:12.376Z,21.50
2018-10-15T09:05:12.307Z,21.25
2018-10-15T09:06:12.291Z,21.59
2018-10-15T09:07:12.250Z,21.42
2018-10-15T09:08:12.189Z,21.53
2018-10-15T09:09:12.199Z,21.71
2018-10-15T09:10:11.919Z,21.71
2018-10-15T09:11:11.846Z,21.22
2018-10-15T09:12:11.804Z,20.74
2018-10-15T09:13:11.732Z,21.01
2018-10-15T09:14:11.608Z,20.95
2018-10-15T09:15:11.540Z,20.62
2018-10-15T09:16:11.445Z,20.48
2018-10-15T09:17:11.365Z,20.55
2018-10-15T09:18:11.304Z,20.42
2018-10-15T09:19:11.223Z,20.31
2018-10-15T09:20:11.156Z,20.10
2018-10-15T09:21:11.099Z,19.92
2018-10-15T09:22:10.987Z,19.95
2018-10-15T09:23:10.906Z,19.71
2018-10-15T09:24:10.837Z,19.78
2018-10-15T09:25:10.747Z,20.21
2018-10-15T09:26:10.672Z,20.57
2018-10-15T09:27:10.622Z,20.82
2018-10-15T09:28:10.521Z,20.97
2018-10-15T09:29:10.433Z,20.54
2018-10-15T09:30:10.355Z,20.58
2018-10-15T09:31:10.319Z,20.36
2018-10-15T09:32:10.211Z,20.28
2018-10-15T09:33:10.119Z,20.32
2018-10-15T09:34:10.044Z,20.42
2018-10-15T09:35:10.002Z,20.50
2018-10-15T09:36:09.892Z,20.59
2018-10-15T09:37:09.809Z,20.50
2018-10-15T09:38:09.735Z,20.42
2018-10-15T09:39:09.780Z,20.13
2018-10-15T09:40:09.914Z,20.35
2018-10-15T09:41:09.497Z,20.16
2018-10-15T09:42:09.434Z,20.23
2018-10-15T09:43:09.349Z,20.23
2018-10-15T09:44:09.262Z,20.28
2018-10-15T09:45:09.184Z,20.13
2018-10-15T09:46:09.108Z,19.92
2018-10-15T09:47:09.023Z,19.77
2018-10-15T09:48:08.947Z,19.87
2018-10-15T09:49:08.868Z,19.84
2018-10-15T09:50:08.794Z,19.99
2018-10-15T09:51:08.787Z,20.08
2018-10-15T09:52:08.633Z,20.26
2018-10-15T09:53:08.575Z,20.42
2018-10-15T09:54:08.476Z,20.61
2018-10-15T09:55:08.401Z,20.62
2018-10-15T09:56:08.327Z,20.74
2018-10-15T09:57:08.246Z,20.92
2018-10-15T09:58:08.221Z,20.94
2018-10-15T09:59:08.094Z,20.87
2018-10-15T10:00:08.257Z,20.99
2018-10-15T10:01:07.936Z,21.10
2018-10-15T10:02:07.898Z,21.10
2018-10-15T10:03:07.775Z,21.21
2018-10-15T10:04:07.697Z,21.25
2018-10-15T10:05:07.645Z,20.89
2018-10-15T10:06:07.606Z,20.97
2018-10-15T10:07:07.506Z,21.01
2018-10-15T10:08:07.468Z,20.98
2018-10-15T10:09:07.309Z,20.99
2018-10-15T10:10:07.222Z,20.97
2018-10-15T10:11:07.150Z,21.09
2018-10-15T10:12:07.123Z,21.29
2018-10-15T10:13:07.015Z,21.35
2018-10-15T10:14:06.921Z,21.35
2018-10-15T10:15:06.918Z,21.62
2018-10-15T10:16:06.762Z,21.79
2018-10-15T10:17:06.799Z,21.75
2018-10-15T10:18:06.719Z,21.88
2018-10-15T10:19:06.567Z,21.88
2018-10-15T10:20:06.447Z,21.98
2018-10-15T10:21:06.377Z,22.17
2018-10-15T10:22:06.308Z,22.03
2018-10-15T10:23:06.307Z,21.84
2018-10-15T10:24:06.191Z,21.98
2018-10-15T10:25:06.116Z,22.00
2018-10-15T10:26:06.107Z,21.62
2018-10-15T10:27:05.946Z,21.50
2018-10-15T10:28:05.842Z,21.62
2018-10-15T10:29:05.802Z,21.49
2018-10-15T10:30:05.725Z,21.58
2018-10-15T10:31:05.672Z,21.35
2018-10-15T10:32:05.559Z,21.52
2018-10-15T10:33:05.516Z,21.52
2018-10-15T10:34:05.378Z,21.24
2018-10-15T10:35:05.357Z,21.50
2018-10-15T10:36:05.333Z,21.77
2018-10-15T10:37:05.169Z,21.65
2018-10-15T10:38:05.070Z,21.58
2018-10-15T10:39:05.038Z,21.71
2018-10-15T10:40:04.972Z,21.80
2018-10-15T10:41:04.955Z,21.82
2018-10-15T10:42:04.773Z,21.86
2018-10-15T10:43:04.679Z,21.86
2018-10-15T10:44:04.604Z,22.03
2018-10-15T10:45:04.566Z,21.71
2018-10-15T10:46:04.497Z,21.65
2018-10-15T10:47:04.398Z,21.61
2018-10-15T10:48:04.294Z,21.75
2018-10-15T10:49:04.219Z,21.77
2018-10-15T10:50:04.137Z,21.77
2018-10-15T10:51:04.051Z,21.84
2018-10-15T10:52:03.975Z,21.98
2018-10-15T10:53:03.905Z,22.06
2018-10-15T10:54:03.830Z,22.18
2018-10-15T10:55:03.758Z,22.33
2018-10-15T10:56:03.670Z,22.43
2018-10-15T10:57:03.592Z,22.54
2018-10-15T10:58:03.592Z,22.67
2018-10-15T10:59:03.447Z,22.12
2018-10-15T11:00:03.371Z,22.18
2018-10-15T11:01:03.289Z,22.21
2018-10-15T11:02:03.222Z,22.12
2018-10-15T11:03:03.176Z,22.49
2018-10-15T11:04:03.076Z,22.86
2018-10-15T11:05:02.999Z,23.20
2018-10-15T11:06:02.909Z,23.15
2018-10-15T11:07:02.827Z,22.98
2018-10-15T11:08:02.772Z,23.31
2018-10-15T11:09:02.694Z,23.40
2018-10-15T11:10:02.595Z,23.48
2018-10-15T11:11:02.522Z,23.28
2018-10-15T11:12:02.458Z,23.61
2018-10-15T11:13:02.367Z,23.84
2018-10-15T11:14:02.294Z,24.25
2018-10-15T11:15:02.222Z,25.13
2018-10-15T11:16:02.158Z,25.79
2018-10-15T11:17:02.069Z,25.10
2018-10-15T11:18:01.995Z,25.28
2018-10-15T11:19:01.962Z,25.21
2018-10-15T11:20:02.106Z,24.53
2018-10-15T11:21:01.847Z,25.06
2018-10-15T11:22:01.696Z,24.65
2018-10-15T11:23:01.620Z,24.81
2018-10-15T11:24:01.569Z,25.25
2018-10-15T11:25:01.498Z,25.17
2018-10-15T11:26:01.410Z,25.43
2018-10-15T11:27:01.338Z,24.39
2018-10-15T11:28:01.258Z,24.42
2018-10-15T11:29:01.179Z,24.43
2018-10-15T11:30:01.110Z,24.49
2018-10-15T11:31:01.034Z,24.03
2018-10-15T11:32:00.959Z,24.39
2018-10-15T11:33:00.881Z,24.64
2018-10-15T11:34:00.825Z,24.65
2018-10-15T11:35:00.785Z,24.31
2018-10-15T11:36:00.676Z,24.05
2018-10-15T11:37:00.599Z,24.99
2018-10-15T11:38:00.531Z,25.94
2018-10-15T11:39:00.444Z,26.09
2018-10-15T11:40:00.369Z,25.55
2018-10-15T11:41:00.302Z,25.50
2018-10-15T11:42:00.234Z,25.03
2018-10-15T11:43:00.163Z,25.05
2018-10-15T11:44:00.100Z,25.25
2018-10-15T11:45:00.013Z,25.82
2018-10-15T11:45:59.933Z,25.79
2018-10-15T11:46:59.932Z,26.66
2018-10-15T11:47:59.789Z,26.65
2018-10-15T11:48:59.723Z,26.40
2018-10-15T11:49:59.651Z,26.52
2018-10-15T11:50:59.572Z,26.76
2018-10-15T11:51:59.495Z,26.70
2018-10-15T11:52:59.436Z,26.72
2018-10-15T11:53:59.417Z,27.39
2018-10-15T11:54:59.287Z,27.97
2018-10-15T11:55:59.210Z,27.93
2018-10-15T11:56:59.139Z,27.37
2018-10-15T11:57:59.077Z,27.28
2018-10-15T11:58:59.001Z,26.63
2018-10-15T11:59:58.926Z,26.76
2018-10-15T12:00:58.847Z,26.09
2018-10-15T12:01:58.784Z,24.93
2018-10-15T12:02:58.708Z,24.35
2018-10-15T12:03:58.634Z,24.10
2018-10-15T12:04:58.576Z,23.94
2018-10-15T12:05:58.501Z,23.47
2018-10-15T12:06:58.428Z,23.46
2018-10-15T12:07:58.356Z,23.38
2018-10-15T12:08:58.275Z,23.51
2018-10-15T12:09:58.200Z,23.50
2018-10-15T12:10:58.199Z,23.39
2018-10-15T12:11:58.077Z,23.31
2018-10-15T12:12:57.985Z,23.16
2018-10-15T12:13:57.922Z,23.40
2018-10-15T12:14:57.837Z,23.32
2018-10-15T12:15:57.761Z,23.15
2018-10-15T12:16:57.767Z,22.94
2018-10-15T12:17:57.616Z,22.70
2018-10-15T12:18:57.538Z,22.75
2018-10-15T12:19:57.463Z,22.54
2018-10-15T12:20:57.392Z,22.45
2018-10-15T12:21:57.317Z,22.36
2018-10-15T12:22:57.240Z,22.39
2018-10-15T12:23:57.166Z,22.42
2018-10-15T12:24:57.085Z,22.60
2018-10-15T12:25:57.010Z,22.86
2018-10-15T12:26:56.943Z,23.23
2018-10-15T12:27:56.895Z,23.78
2018-10-15T12:28:56.788Z,24.05
2018-10-15T12:29:56.724Z,24.64
2018-10-15T12:30:56.636Z,25.09
2018-10-15T12:31:56.563Z,25.08
2018-10-15T12:32:56.493Z,25.09
2018-10-15T12:33:56.416Z,25.06
2018-10-15T12:34:56.341Z,25.42
2018-10-15T12:35:56.264Z,25.13
2018-10-15T12:36:56.191Z,24.76
2018-10-15T12:37:56.129Z,24.06
2018-10-15T12:38:56.044Z,24.20
2018-10-15T12:39:55.969Z,24.46
2018-10-15T12:40:55.890Z,24.55
2018-10-15T12:41:55.829Z,24.34
2018-10-15T12:42:55.742Z,24.37
2018-10-15T12:43:55.668Z,24.34
2018-10-15T13:19:19.704Z,24.00
2018-10-15T13:20:19.561Z,24.47
2018-10-15T13:21:19.486Z,24.57
2018-10-15T13:22:19.410Z,24.53
2018-10-15T13:23:19.338Z,24.24
2018-10-15T13:24:19.256Z,23.68
2018-10-15T13:25:19.181Z,23.25
2018-10-15T13:26:19.114Z,23.10